sensor_id;sensor_type;location;lat;lon;timestamp;P1;durP1;ratioP1;P2;durP2;ratioP2
34403;SDS011;23116;47.660;9.126;2024-02-21T00:01:51;2.92;;;1.80;;
34403;SDS011;23116;47.660;9.126;2024-02-21T00:04:18;2.95;;;1.80;;
34403;SDS011;23116;47.660;9.126;2024-02-21T00:06:45;3.60;;;1.67;;
34403;SDS011;23116;47.660;9.126;2024-02-21T00:09:12;4.88;;;1.80;;
34403;SDS011;23116;47.660;9.126;2024-02-21T00:11:39;3.50;;;1.88;;
34403;SDS011;23116;47.660;9.126;2024-02-21T00:14:06;2.53;;;1.60;;
34403;SDS011;23116;47.660;9.126;2024-02-21T00:16:33;2.60;;;1.70;;
34403;SDS011;23116;47.660;9.126;2024-02-21T00:19:01;2.28;;;1.70;;
34403;SDS011;23116;47.660;9.126;2024-02-21T00:21:29;3.90;;;1.83;;
34403;SDS011;23116;47.660;9.126;2024-02-21T00:23:56;2.90;;;1.77;;
34403;SDS011;23116;47.660;9.126;2024-02-21T00:26:23;4.00;;;2.00;;
34403;SDS011;23116;47.660;9.126;2024-02-21T00:28:50;2.85;;;1.73;;
34403;SDS011;23116;47.660;9.126;2024-02-21T00:31:18;2.85;;;1.60;;
34403;SDS011;23116;47.660;9.126;2024-02-21T00:33:45;2.75;;;1.70;;
34403;SDS011;23116;47.660;9.126;2024-02-21T00:36:12;2.00;;;1.70;;
34403;SDS011;23116;47.660;9.126;2024-02-21T00:38:40;2.15;;;1.55;;
34403;SDS011;23116;47.660;9.126;2024-02-21T00:41:07;2.67;;;1.60;;
34403;SDS011;23116;47.660;9.126;2024-02-21T00:43:34;2.72;;;1.58;;
34403;SDS011;23116;47.660;9.126;2024-02-21T00:46:01;2.50;;;1.38;;
34403;SDS011;23116;47.660;9.126;2024-02-21T00:48:30;1.85;;;1.30;;
34403;SDS011;23116;47.660;9.126;2024-02-21T00:50:57;1.80;;;1.30;;
34403;SDS011;23116;47.660;9.126;2024-02-21T00:53:24;2.45;;;1.60;;
34403;SDS011;23116;47.660;9.126;2024-02-21T00:55:52;3.30;;;1.45;;
34403;SDS011;23116;47.660;9.126;2024-02-21T00:58:19;2.17;;;1.55;;
34403;SDS011;23116;47.660;9.126;2024-02-21T01:00:46;1.95;;;1.23;;
34403;SDS011;23116;47.660;9.126;2024-02-21T01:03:13;2.20;;;1.23;;
34403;SDS011;23116;47.660;9.126;2024-02-21T01:05:40;1.83;;;1.23;;
34403;SDS011;23116;47.660;9.126;2024-02-21T01:08:07;1.40;;;1.08;;
34403;SDS011;23116;47.660;9.126;2024-02-21T01:10:34;1.77;;;1.15;;
34403;SDS011;23116;47.660;9.126;2024-02-21T01:13:01;2.28;;;1.20;;
34403;SDS011;23116;47.660;9.126;2024-02-21T01:15:29;1.27;;;1.10;;
34403;SDS011;23116;47.660;9.126;2024-02-21T01:17:56;1.95;;;1.13;;
34403;SDS011;23116;47.660;9.126;2024-02-21T01:20:23;2.28;;;1.38;;
34403;SDS011;23116;47.660;9.126;2024-02-21T01:22:50;1.88;;;1.33;;
34403;SDS011;23116;47.660;9.126;2024-02-21T01:25:17;3.42;;;1.60;;
34403;SDS011;23116;47.660;9.126;2024-02-21T01:27:44;2.88;;;1.40;;
34403;SDS011;23116;47.660;9.126;2024-02-21T01:30:11;2.25;;;1.23;;
34403;SDS011;23116;47.660;9.126;2024-02-21T01:32:39;2.45;;;1.10;;
34403;SDS011;23116;47.660;9.126;2024-02-21T01:35:06;1.67;;;1.30;;
34403;SDS011;23116;47.660;9.126;2024-02-21T01:37:33;1.10;;;1.00;;
34403;SDS011;23116;47.660;9.126;2024-02-21T01:40:00;3.95;;;1.35;;
34403;SDS011;23116;47.660;9.126;2024-02-21T01:42:28;2.78;;;1.63;;
34403;SDS011;23116;47.660;9.126;2024-02-21T01:44:55;3.55;;;2.22;;
34403;SDS011;23116;47.660;9.126;2024-02-21T01:47:22;2.90;;;1.90;;
34403;SDS011;23116;47.660;9.126;2024-02-21T01:49:50;3.67;;;2.20;;
34403;SDS011;23116;47.660;9.126;2024-02-21T01:52:17;3.85;;;2.22;;
34403;SDS011;23116;47.660;9.126;2024-02-21T01:54:44;2.63;;;2.05;;
34403;SDS011;23116;47.660;9.126;2024-02-21T01:57:13;2.50;;;1.77;;
34403;SDS011;23116;47.660;9.126;2024-02-21T01:59:41;3.03;;;1.70;;
34403;SDS011;23116;47.660;9.126;2024-02-21T02:02:08;1.13;;;1.05;;
34403;SDS011;23116;47.660;9.126;2024-02-21T02:04:37;1.50;;;1.30;;
34403;SDS011;23116;47.660;9.126;2024-02-21T02:07:05;2.40;;;1.20;;
34403;SDS011;23116;47.660;9.126;2024-02-21T02:09:33;1.50;;;1.20;;
34403;SDS011;23116;47.660;9.126;2024-02-21T02:12:01;1.90;;;1.00;;
34403;SDS011;23116;47.660;9.126;2024-02-21T02:14:29;2.13;;;1.10;;
34403;SDS011;23116;47.660;9.126;2024-02-21T02:16:56;1.92;;;1.02;;
34403;SDS011;23116;47.660;9.126;2024-02-21T02:19:23;1.15;;;1.00;;
34403;SDS011;23116;47.660;9.126;2024-02-21T02:21:51;2.08;;;1.00;;
34403;SDS011;23116;47.660;9.126;2024-02-21T02:24:27;2.05;;;0.65;;
34403;SDS011;23116;47.660;9.126;2024-02-21T02:26:55;1.15;;;1.05;;
34403;SDS011;23116;47.660;9.126;2024-02-21T02:29:22;1.92;;;0.82;;
34403;SDS011;23116;47.660;9.126;2024-02-21T02:31:54;1.45;;;0.95;;
34403;SDS011;23116;47.660;9.126;2024-02-21T02:34:21;1.55;;;1.00;;
34403;SDS011;23116;47.660;9.126;2024-02-21T02:36:49;1.33;;;1.17;;
34403;SDS011;23116;47.660;9.126;2024-02-21T02:39:16;1.77;;;1.20;;
34403;SDS011;23116;47.660;9.126;2024-02-21T02:41:43;1.95;;;1.10;;
34403;SDS011;23116;47.660;9.126;2024-02-21T02:44:10;1.98;;;1.20;;
34403;SDS011;23116;47.660;9.126;2024-02-21T02:46:39;2.80;;;1.48;;
34403;SDS011;23116;47.660;9.126;2024-02-21T02:49:07;0.82;;;0.77;;
34403;SDS011;23116;47.660;9.126;2024-02-21T02:51:34;2.50;;;1.05;;
34403;SDS011;23116;47.660;9.126;2024-02-21T02:54:02;2.40;;;1.38;;
34403;SDS011;23116;47.660;9.126;2024-02-21T02:56:29;2.00;;;1.30;;
34403;SDS011;23116;47.660;9.126;2024-02-21T02:58:56;2.45;;;1.25;;
34403;SDS011;23116;47.660;9.126;2024-02-21T03:01:23;0.93;;;0.75;;
34403;SDS011;23116;47.660;9.126;2024-02-21T03:03:50;1.95;;;1.25;;
34403;SDS011;23116;47.660;9.126;2024-02-21T03:06:17;4.38;;;1.45;;
34403;SDS011;23116;47.660;9.126;2024-02-21T03:08:44;2.35;;;1.40;;
34403;SDS011;23116;47.660;9.126;2024-02-21T03:11:12;3.05;;;1.95;;
34403;SDS011;23116;47.660;9.126;2024-02-21T03:13:39;2.38;;;1.48;;
34403;SDS011;23116;47.660;9.126;2024-02-21T03:16:06;5.22;;;1.85;;
34403;SDS011;23116;47.660;9.126;2024-02-21T03:18:33;2.40;;;1.75;;
34403;SDS011;23116;47.660;9.126;2024-02-21T03:21:00;2.10;;;1.90;;
34403;SDS011;23116;47.660;9.126;2024-02-21T03:23:28;2.20;;;1.65;;
34403;SDS011;23116;47.660;9.126;2024-02-21T03:25:55;5.63;;;1.88;;
34403;SDS011;23116;47.660;9.126;2024-02-21T03:28:22;3.45;;;1.63;;
34403;SDS011;23116;47.660;9.126;2024-02-21T03:30:49;1.65;;;1.17;;
34403;SDS011;23116;47.660;9.126;2024-02-21T03:33:16;2.65;;;1.20;;
34403;SDS011;23116;47.660;9.126;2024-02-21T03:35:45;8.52;;;4.80;;
34403;SDS011;23116;47.660;9.126;2024-02-21T03:38:12;13.90;;;8.15;;
34403;SDS011;23116;47.660;9.126;2024-02-21T03:40:39;9.30;;;5.07;;
34403;SDS011;23116;47.660;9.126;2024-02-21T03:43:06;9.63;;;6.55;;
34403;SDS011;23116;47.660;9.126;2024-02-21T03:45:33;7.72;;;4.68;;
34403;SDS011;23116;47.660;9.126;2024-02-21T03:48:00;5.90;;;4.00;;
34403;SDS011;23116;47.660;9.126;2024-02-21T03:50:27;5.40;;;3.63;;
34403;SDS011;23116;47.660;9.126;2024-02-21T03:52:55;3.75;;;2.78;;
34403;SDS011;23116;47.660;9.126;2024-02-21T03:55:22;5.18;;;2.90;;
34403;SDS011;23116;47.660;9.126;2024-02-21T03:57:49;3.55;;;2.70;;
34403;SDS011;23116;47.660;9.126;2024-02-21T04:00:16;3.42;;;2.60;;
34403;SDS011;23116;47.660;9.126;2024-02-21T04:02:44;4.43;;;2.67;;
34403;SDS011;23116;47.660;9.126;2024-02-21T04:05:11;4.47;;;2.58;;
34403;SDS011;23116;47.660;9.126;2024-02-21T04:07:41;3.78;;;2.50;;
34403;SDS011;23116;47.660;9.126;2024-02-21T04:10:08;4.80;;;2.60;;
34403;SDS011;23116;47.660;9.126;2024-02-21T04:12:35;3.63;;;2.25;;
34403;SDS011;23116;47.660;9.126;2024-02-21T04:15:04;2.15;;;1.90;;
34403;SDS011;23116;47.660;9.126;2024-02-21T04:17:31;2.40;;;2.03;;
34403;SDS011;23116;47.660;9.126;2024-02-21T04:20:02;2.40;;;1.90;;
34403;SDS011;23116;47.660;9.126;2024-02-21T04:22:33;3.83;;;1.60;;
34403;SDS011;23116;47.660;9.126;2024-02-21T04:25:01;1.70;;;1.60;;
34403;SDS011;23116;47.660;9.126;2024-02-21T04:27:28;3.33;;;1.65;;
34403;SDS011;23116;47.660;9.126;2024-02-21T04:29:56;2.70;;;2.03;;
34403;SDS011;23116;47.660;9.126;2024-02-21T04:32:23;1.40;;;1.30;;
34403;SDS011;23116;47.660;9.126;2024-02-21T04:34:52;2.35;;;1.90;;
34403;SDS011;23116;47.660;9.126;2024-02-21T04:37:19;2.92;;;1.58;;
34403;SDS011;23116;47.660;9.126;2024-02-21T04:39:48;1.92;;;1.65;;
34403;SDS011;23116;47.660;9.126;2024-02-21T04:42:15;2.42;;;1.35;;
34403;SDS011;23116;47.660;9.126;2024-02-21T04:44:42;1.90;;;1.70;;
34403;SDS011;23116;47.660;9.126;2024-02-21T04:47:09;2.60;;;1.38;;
34403;SDS011;23116;47.660;9.126;2024-02-21T04:49:37;1.17;;;1.00;;
34403;SDS011;23116;47.660;9.126;2024-02-21T04:52:05;3.40;;;1.48;;
34403;SDS011;23116;47.660;9.126;2024-02-21T04:54:32;1.60;;;1.50;;
34403;SDS011;23116;47.660;9.126;2024-02-21T04:57:02;1.40;;;1.30;;
34403;SDS011;23116;47.660;9.126;2024-02-21T04:59:30;1.33;;;1.23;;
34403;SDS011;23116;47.660;9.126;2024-02-21T05:01:57;2.13;;;1.58;;
34403;SDS011;23116;47.660;9.126;2024-02-21T05:04:24;1.48;;;1.15;;
34403;SDS011;23116;47.660;9.126;2024-02-21T05:06:51;1.52;;;1.42;;
34403;SDS011;23116;47.660;9.126;2024-02-21T05:09:18;1.50;;;1.40;;
34403;SDS011;23116;47.660;9.126;2024-02-21T05:11:46;1.98;;;1.58;;
34403;SDS011;23116;47.660;9.126;2024-02-21T05:14:13;2.75;;;1.83;;
34403;SDS011;23116;47.660;9.126;2024-02-21T05:16:40;2.13;;;1.92;;
34403;SDS011;23116;47.660;9.126;2024-02-21T05:19:07;2.38;;;1.80;;
34403;SDS011;23116;47.660;9.126;2024-02-21T05:21:34;3.55;;;1.92;;
34403;SDS011;23116;47.660;9.126;2024-02-21T05:24:01;2.38;;;1.52;;
34403;SDS011;23116;47.660;9.126;2024-02-21T05:26:29;1.90;;;1.80;;
34403;SDS011;23116;47.660;9.126;2024-02-21T05:28:57;2.05;;;1.88;;
34403;SDS011;23116;47.660;9.126;2024-02-21T05:31:24;1.60;;;1.50;;
34403;SDS011;23116;47.660;9.126;2024-02-21T05:33:53;2.05;;;1.65;;
34403;SDS011;23116;47.660;9.126;2024-02-21T05:36:20;2.75;;;2.15;;
34403;SDS011;23116;47.660;9.126;2024-02-21T05:38:47;2.38;;;1.90;;
34403;SDS011;23116;47.660;9.126;2024-02-21T05:41:14;2.58;;;2.10;;
34403;SDS011;23116;47.660;9.126;2024-02-21T05:43:41;2.10;;;1.88;;
34403;SDS011;23116;47.660;9.126;2024-02-21T05:46:08;2.80;;;1.98;;
34403;SDS011;23116;47.660;9.126;2024-02-21T05:48:35;1.60;;;1.50;;
34403;SDS011;23116;47.660;9.126;2024-02-21T05:51:03;2.20;;;1.58;;
34403;SDS011;23116;47.660;9.126;2024-02-21T05:53:30;1.90;;;1.60;;
34403;SDS011;23116;47.660;9.126;2024-02-21T05:55:57;2.47;;;1.50;;
34403;SDS011;23116;47.660;9.126;2024-02-21T05:58:24;1.58;;;1.45;;
34403;SDS011;23116;47.660;9.126;2024-02-21T06:00:51;2.70;;;1.60;;
34403;SDS011;23116;47.660;9.126;2024-02-21T06:03:19;3.63;;;1.70;;
34403;SDS011;23116;47.660;9.126;2024-02-21T06:05:46;1.77;;;1.48;;
34403;SDS011;23116;47.660;9.126;2024-02-21T06:08:13;3.97;;;1.65;;
34403;SDS011;23116;47.660;9.126;2024-02-21T06:10:40;1.88;;;1.70;;
34403;SDS011;23116;47.660;9.126;2024-02-21T06:13:07;2.90;;;1.88;;
34403;SDS011;23116;47.660;9.126;2024-02-21T06:15:34;2.25;;;1.90;;
34403;SDS011;23116;47.660;9.126;2024-02-21T06:18:01;2.80;;;2.10;;
34403;SDS011;23116;47.660;9.126;2024-02-21T06:20:29;3.80;;;2.45;;
34403;SDS011;23116;47.660;9.126;2024-02-21T06:22:56;2.80;;;2.10;;
34403;SDS011;23116;47.660;9.126;2024-02-21T06:25:23;1.90;;;1.80;;
34403;SDS011;23116;47.660;9.126;2024-02-21T06:27:51;5.15;;;1.80;;
34403;SDS011;23116;47.660;9.126;2024-02-21T06:30:18;2.88;;;1.65;;
34403;SDS011;23116;47.660;9.126;2024-02-21T06:32:45;2.63;;;1.98;;
34403;SDS011;23116;47.660;9.126;2024-02-21T06:35:12;1.92;;;1.63;;
34403;SDS011;23116;47.660;9.126;2024-02-21T06:37:39;2.60;;;2.20;;
34403;SDS011;23116;47.660;9.126;2024-02-21T06:40:06;2.85;;;2.35;;
34403;SDS011;23116;47.660;9.126;2024-02-21T06:42:34;3.13;;;2.33;;
34403;SDS011;23116;47.660;9.126;2024-02-21T06:45:01;2.10;;;1.75;;
34403;SDS011;23116;47.660;9.126;2024-02-21T06:47:29;2.15;;;1.65;;
34403;SDS011;23116;47.660;9.126;2024-02-21T06:49:56;1.92;;;1.73;;
34403;SDS011;23116;47.660;9.126;2024-02-21T06:52:23;2.47;;;2.28;;
34403;SDS011;23116;47.660;9.126;2024-02-21T06:54:50;2.25;;;2.05;;
34403;SDS011;23116;47.660;9.126;2024-02-21T06:57:17;1.80;;;1.60;;
34403;SDS011;23116;47.660;9.126;2024-02-21T06:59:44;1.80;;;1.70;;
34403;SDS011;23116;47.660;9.126;2024-02-21T07:02:11;1.90;;;1.70;;
34403;SDS011;23116;47.660;9.126;2024-02-21T07:04:38;1.65;;;1.55;;
34403;SDS011;23116;47.660;9.126;2024-02-21T07:07:05;5.30;;;1.75;;
34403;SDS011;23116;47.660;9.126;2024-02-21T07:09:33;1.80;;;1.50;;
34403;SDS011;23116;47.660;9.126;2024-02-21T07:12:01;3.40;;;2.10;;
34403;SDS011;23116;47.660;9.126;2024-02-21T07:14:29;5.22;;;3.35;;
34403;SDS011;23116;47.660;9.126;2024-02-21T07:17:01;6.53;;;3.85;;
34403;SDS011;23116;47.660;9.126;2024-02-21T07:19:28;7.05;;;3.40;;
34403;SDS011;23116;47.660;9.126;2024-02-21T07:21:55;5.68;;;3.72;;
34403;SDS011;23116;47.660;9.126;2024-02-21T07:24:23;5.80;;;3.63;;
34403;SDS011;23116;47.660;9.126;2024-02-21T07:26:50;3.25;;;2.45;;
34403;SDS011;23116;47.660;9.126;2024-02-21T07:29:18;3.00;;;2.10;;
34403;SDS011;23116;47.660;9.126;2024-02-21T07:31:45;4.18;;;2.60;;
34403;SDS011;23116;47.660;9.126;2024-02-21T07:34:14;2.45;;;2.03;;
34403;SDS011;23116;47.660;9.126;2024-02-21T07:36:41;2.63;;;2.30;;
34403;SDS011;23116;47.660;9.126;2024-02-21T07:39:09;5.22;;;2.50;;
34403;SDS011;23116;47.660;9.126;2024-02-21T07:41:36;4.90;;;2.78;;
34403;SDS011;23116;47.660;9.126;2024-02-21T07:44:05;3.55;;;2.70;;
34403;SDS011;23116;47.660;9.126;2024-02-21T07:46:32;4.75;;;3.30;;
34403;SDS011;23116;47.660;9.126;2024-02-21T07:49:00;4.47;;;3.40;;
34403;SDS011;23116;47.660;9.126;2024-02-21T07:51:27;5.97;;;3.58;;
34403;SDS011;23116;47.660;9.126;2024-02-21T07:53:54;5.25;;;3.55;;
34403;SDS011;23116;47.660;9.126;2024-02-21T07:56:22;5.28;;;3.22;;
34403;SDS011;23116;47.660;9.126;2024-02-21T07:58:52;5.05;;;3.47;;
34403;SDS011;23116;47.660;9.126;2024-02-21T08:01:19;4.18;;;3.20;;
34403;SDS011;23116;47.660;9.126;2024-02-21T08:03:47;4.50;;;3.40;;
34403;SDS011;23116;47.660;9.126;2024-02-21T08:06:14;4.47;;;3.58;;
34403;SDS011;23116;47.660;9.126;2024-02-21T08:08:41;4.78;;;3.92;;
34403;SDS011;23116;47.660;9.126;2024-02-21T08:11:08;6.45;;;3.80;;
34403;SDS011;23116;47.660;9.126;2024-02-21T08:13:35;5.15;;;4.05;;
34403;SDS011;23116;47.660;9.126;2024-02-21T08:16:03;3.60;;;2.80;;
34403;SDS011;23116;47.660;9.126;2024-02-21T08:18:30;6.90;;;3.53;;
34403;SDS011;23116;47.660;9.126;2024-02-21T08:20:59;5.25;;;3.45;;
34403;SDS011;23116;47.660;9.126;2024-02-21T08:23:26;4.95;;;2.83;;
34403;SDS011;23116;47.660;9.126;2024-02-21T08:25:54;3.80;;;3.45;;
34403;SDS011;23116;47.660;9.126;2024-02-21T08:28:21;6.60;;;3.78;;
34403;SDS011;23116;47.660;9.126;2024-02-21T08:30:48;4.93;;;3.58;;
34403;SDS011;23116;47.660;9.126;2024-02-21T08:33:15;4.35;;;3.83;;
34403;SDS011;23116;47.660;9.126;2024-02-21T08:35:43;4.53;;;3.40;;
34403;SDS011;23116;47.660;9.126;2024-02-21T08:38:11;4.57;;;3.50;;
34403;SDS011;23116;47.660;9.126;2024-02-21T08:40:38;5.80;;;3.38;;
34403;SDS011;23116;47.660;9.126;2024-02-21T08:43:05;3.65;;;3.17;;
34403;SDS011;23116;47.660;9.126;2024-02-21T08:45:32;3.70;;;3.20;;
34403;SDS011;23116;47.660;9.126;2024-02-21T08:47:59;3.38;;;3.08;;
34403;SDS011;23116;47.660;9.126;2024-02-21T08:50:26;4.20;;;3.65;;
34403;SDS011;23116;47.660;9.126;2024-02-21T08:52:54;6.47;;;4.13;;
34403;SDS011;23116;47.660;9.126;2024-02-21T08:55:21;4.70;;;4.25;;
34403;SDS011;23116;47.660;9.126;2024-02-21T08:57:49;4.40;;;4.00;;
34403;SDS011;23116;47.660;9.126;2024-02-21T09:00:16;4.20;;;3.38;;
34403;SDS011;23116;47.660;9.126;2024-02-21T09:02:46;4.68;;;3.33;;
34403;SDS011;23116;47.660;9.126;2024-02-21T09:05:13;4.72;;;4.03;;
34403;SDS011;23116;47.660;9.126;2024-02-21T09:07:40;4.38;;;3.72;;
34403;SDS011;23116;47.660;9.126;2024-02-21T09:10:07;5.05;;;3.47;;
34403;SDS011;23116;47.660;9.126;2024-02-21T09:12:35;10.13;;;3.72;;
34403;SDS011;23116;47.660;9.126;2024-02-21T09:15:02;4.78;;;3.53;;
34403;SDS011;23116;47.660;9.126;2024-02-21T09:17:30;5.68;;;4.03;;
34403;SDS011;23116;47.660;9.126;2024-02-21T09:19:58;4.18;;;3.70;;
34403;SDS011;23116;47.660;9.126;2024-02-21T09:22:28;4.78;;;3.67;;
34403;SDS011;23116;47.660;9.126;2024-02-21T09:24:56;4.05;;;3.30;;
34403;SDS011;23116;47.660;9.126;2024-02-21T09:27:23;5.47;;;4.25;;
34403;SDS011;23116;47.660;9.126;2024-02-21T09:29:50;5.13;;;3.50;;
34403;SDS011;23116;47.660;9.126;2024-02-21T09:32:18;5.68;;;3.50;;
34403;SDS011;23116;47.660;9.126;2024-02-21T09:34:45;4.30;;;3.40;;
34403;SDS011;23116;47.660;9.126;2024-02-21T09:37:12;4.78;;;3.55;;
34403;SDS011;23116;47.660;9.126;2024-02-21T09:39:39;3.22;;;2.92;;
34403;SDS011;23116;47.660;9.126;2024-02-21T09:42:06;5.38;;;3.50;;
34403;SDS011;23116;47.660;9.126;2024-02-21T09:44:36;4.38;;;3.60;;
34403;SDS011;23116;47.660;9.126;2024-02-21T09:47:12;3.92;;;3.55;;
34403;SDS011;23116;47.660;9.126;2024-02-21T09:49:49;4.28;;;3.42;;
34403;SDS011;23116;47.660;9.126;2024-02-21T09:52:17;5.72;;;3.30;;
34403;SDS011;23116;47.660;9.126;2024-02-21T09:54:46;4.80;;;2.92;;
34403;SDS011;23116;47.660;9.126;2024-02-21T09:57:16;3.80;;;2.55;;
34403;SDS011;23116;47.660;9.126;2024-02-21T09:59:44;4.05;;;2.70;;
34403;SDS011;23116;47.660;9.126;2024-02-21T10:02:11;4.35;;;2.80;;
34403;SDS011;23116;47.660;9.126;2024-02-21T10:04:39;2.78;;;2.40;;
34403;SDS011;23116;47.660;9.126;2024-02-21T10:07:06;3.70;;;2.40;;
34403;SDS011;23116;47.660;9.126;2024-02-21T10:09:34;2.85;;;2.60;;
34403;SDS011;23116;47.660;9.126;2024-02-21T10:12:08;2.55;;;2.33;;
34403;SDS011;23116;47.660;9.126;2024-02-21T10:14:36;2.85;;;2.20;;
34403;SDS011;23116;47.660;9.126;2024-02-21T10:17:04;3.30;;;2.15;;
34403;SDS011;23116;47.660;9.126;2024-02-21T10:19:34;3.70;;;2.45;;
34403;SDS011;23116;47.660;9.126;2024-02-21T10:22:02;4.13;;;2.30;;
34403;SDS011;23116;47.660;9.126;2024-02-21T10:24:33;3.25;;;2.10;;
34403;SDS011;23116;47.660;9.126;2024-02-21T10:27:04;1.90;;;1.80;;
34403;SDS011;23116;47.660;9.126;2024-02-21T10:29:39;2.10;;;1.90;;
34403;SDS011;23116;47.660;9.126;2024-02-21T10:32:13;1.70;;;1.55;;
34403;SDS011;23116;47.660;9.126;2024-02-21T10:34:41;2.33;;;1.80;;
34403;SDS011;23116;47.660;9.126;2024-02-21T10:37:10;3.85;;;1.58;;
34403;SDS011;23116;47.660;9.126;2024-02-21T10:39:38;2.30;;;2.03;;
34403;SDS011;23116;47.660;9.126;2024-02-21T10:42:07;2.63;;;1.85;;
34403;SDS011;23116;47.660;9.126;2024-02-21T10:44:38;2.00;;;1.90;;
34403;SDS011;23116;47.660;9.126;2024-02-21T10:47:09;2.42;;;1.67;;
34403;SDS011;23116;47.660;9.126;2024-02-21T10:49:42;2.15;;;1.95;;
34403;SDS011;23116;47.660;9.126;2024-02-21T10:52:25;2.28;;;1.48;;
34403;SDS011;23116;47.660;9.126;2024-02-21T10:55:23;2.25;;;1.63;;
34403;SDS011;23116;47.660;9.126;2024-02-21T10:58:02;2.13;;;1.70;;
34403;SDS011;23116;47.660;9.126;2024-02-21T11:00:30;1.95;;;1.75;;
34403;SDS011;23116;47.660;9.126;2024-02-21T11:02:59;2.10;;;1.83;;
34403;SDS011;23116;47.660;9.126;2024-02-21T11:05:28;2.50;;;2.30;;
34403;SDS011;23116;47.660;9.126;2024-02-21T11:07:56;2.25;;;2.05;;
34403;SDS011;23116;47.660;9.126;2024-02-21T11:10:24;3.35;;;2.15;;
34403;SDS011;23116;47.660;9.126;2024-02-21T11:13:07;2.35;;;2.15;;
34403;SDS011;23116;47.660;9.126;2024-02-21T11:15:35;2.08;;;1.80;;
34403;SDS011;23116;47.660;9.126;2024-02-21T11:18:02;2.03;;;1.85;;
34403;SDS011;23116;47.660;9.126;2024-02-21T11:20:33;3.60;;;2.00;;
34403;SDS011;23116;47.660;9.126;2024-02-21T11:23:02;3.23;;;2.07;;
34403;SDS011;23116;47.660;9.126;2024-02-21T11:25:29;2.50;;;1.80;;
34403;SDS011;23116;47.660;9.126;2024-02-21T11:27:58;3.03;;;1.60;;
34403;SDS011;23116;47.660;9.126;2024-02-21T11:30:27;1.98;;;1.60;;
34403;SDS011;23116;47.660;9.126;2024-02-21T11:33:03;2.05;;;1.50;;
34403;SDS011;23116;47.660;9.126;2024-02-21T11:35:33;1.83;;;1.23;;
34403;SDS011;23116;47.660;9.126;2024-02-21T11:38:35;1.60;;;1.35;;
34403;SDS011;23116;47.660;9.126;2024-02-21T11:40:54;2.55;;;1.38;;
34403;SDS011;23116;47.660;9.126;2024-02-21T11:43:23;2.20;;;1.70;;
34403;SDS011;23116;47.660;9.126;2024-02-21T11:45:51;2.15;;;1.60;;
34403;SDS011;23116;47.660;9.126;2024-02-21T11:48:29;3.83;;;1.67;;
34403;SDS011;23116;47.660;9.126;2024-02-21T11:50:57;1.63;;;1.52;;
34403;SDS011;23116;47.660;9.126;2024-02-21T11:53:26;2.03;;;1.50;;
34403;SDS011;23116;47.660;9.126;2024-02-21T11:55:56;1.63;;;1.35;;
34403;SDS011;23116;47.660;9.126;2024-02-21T11:58:23;1.83;;;1.73;;
34403;SDS011;23116;47.660;9.126;2024-02-21T12:00:51;1.73;;;1.50;;
34403;SDS011;23116;47.660;9.126;2024-02-21T12:03:19;1.73;;;1.52;;
34403;SDS011;23116;47.660;9.126;2024-02-21T12:05:46;2.83;;;1.48;;
34403;SDS011;23116;47.660;9.126;2024-02-21T12:08:13;1.90;;;1.75;;
34403;SDS011;23116;47.660;9.126;2024-02-21T12:10:41;2.20;;;2.00;;
34403;SDS011;23116;47.660;9.126;2024-02-21T12:13:09;2.08;;;1.55;;
34403;SDS011;23116;47.660;9.126;2024-02-21T12:15:38;2.97;;;1.77;;
34403;SDS011;23116;47.660;9.126;2024-02-21T12:18:06;1.80;;;1.42;;
34403;SDS011;23116;47.660;9.126;2024-02-21T12:20:35;2.17;;;1.73;;
34403;SDS011;23116;47.660;9.126;2024-02-21T12:23:02;1.58;;;1.48;;
34403;SDS011;23116;47.660;9.126;2024-02-21T12:25:29;1.92;;;1.70;;
34403;SDS011;23116;47.660;9.126;2024-02-21T12:27:56;2.70;;;1.80;;
34403;SDS011;23116;47.660;9.126;2024-02-21T12:30:25;2.15;;;1.73;;
34403;SDS011;23116;47.660;9.126;2024-02-21T12:32:52;1.80;;;1.67;;
34403;SDS011;23116;47.660;9.126;2024-02-21T12:35:20;1.90;;;1.50;;
34403;SDS011;23116;47.660;9.126;2024-02-21T12:37:47;1.60;;;1.50;;
34403;SDS011;23116;47.660;9.126;2024-02-21T12:40:14;2.03;;;1.88;;
34403;SDS011;23116;47.660;9.126;2024-02-21T12:42:42;1.38;;;1.23;;
34403;SDS011;23116;47.660;9.126;2024-02-21T12:45:10;2.17;;;1.55;;
34403;SDS011;23116;47.660;9.126;2024-02-21T12:47:38;3.00;;;1.48;;
34403;SDS011;23116;47.660;9.126;2024-02-21T12:50:05;1.52;;;1.20;;
34403;SDS011;23116;47.660;9.126;2024-02-21T12:52:33;1.42;;;1.33;;
34403;SDS011;23116;47.660;9.126;2024-02-21T12:55:00;2.72;;;1.40;;
34403;SDS011;23116;47.660;9.126;2024-02-21T12:57:27;1.42;;;1.33;;
34403;SDS011;23116;47.660;9.126;2024-02-21T12:59:54;0.95;;;0.85;;
34403;SDS011;23116;47.660;9.126;2024-02-21T13:02:21;1.30;;;1.20;;
34403;SDS011;23116;47.660;9.126;2024-02-21T13:04:49;1.30;;;1.20;;
34403;SDS011;23116;47.660;9.126;2024-02-21T13:07:16;1.52;;;1.30;;
34403;SDS011;23116;47.660;9.126;2024-02-21T13:09:43;1.27;;;1.17;;
34403;SDS011;23116;47.660;9.126;2024-02-21T13:12:10;2.08;;;1.52;;
34403;SDS011;23116;47.660;9.126;2024-02-21T13:14:37;1.60;;;1.08;;
34403;SDS011;23116;47.660;9.126;2024-02-21T13:17:04;1.50;;;1.40;;
34403;SDS011;23116;47.660;9.126;2024-02-21T13:19:31;2.72;;;1.00;;
34403;SDS011;23116;47.660;9.126;2024-02-21T13:21:59;1.65;;;1.08;;
34403;SDS011;23116;47.660;9.126;2024-02-21T13:24:27;1.35;;;1.25;;
34403;SDS011;23116;47.660;9.126;2024-02-21T13:26:56;1.15;;;0.98;;
34403;SDS011;23116;47.660;9.126;2024-02-21T13:29:23;2.72;;;1.20;;
34403;SDS011;23116;47.660;9.126;2024-02-21T13:31:56;1.98;;;1.20;;
34403;SDS011;23116;47.660;9.126;2024-02-21T13:34:23;1.50;;;1.40;;
34403;SDS011;23116;47.660;9.126;2024-02-21T13:36:50;1.30;;;0.90;;
34403;SDS011;23116;47.660;9.126;2024-02-21T13:39:17;2.15;;;1.20;;
34403;SDS011;23116;47.660;9.126;2024-02-21T13:41:45;4.10;;;1.20;;
34403;SDS011;23116;47.660;9.126;2024-02-21T13:44:12;1.70;;;1.27;;
34403;SDS011;23116;47.660;9.126;2024-02-21T13:46:39;2.65;;;1.00;;
34403;SDS011;23116;47.660;9.126;2024-02-21T13:49:06;1.27;;;1.05;;
34403;SDS011;23116;47.660;9.126;2024-02-21T13:51:33;1.83;;;1.02;;
34403;SDS011;23116;47.660;9.126;2024-02-21T13:54:02;1.50;;;1.40;;
34403;SDS011;23116;47.660;9.126;2024-02-21T13:56:30;3.55;;;1.80;;
34403;SDS011;23116;47.660;9.126;2024-02-21T13:58:58;1.98;;;1.60;;
34403;SDS011;23116;47.660;9.126;2024-02-21T14:01:25;3.25;;;2.35;;
34403;SDS011;23116;47.660;9.126;2024-02-21T14:03:57;1.77;;;1.63;;
34403;SDS011;23116;47.660;9.126;2024-02-21T14:06:24;3.63;;;1.90;;
34403;SDS011;23116;47.660;9.126;2024-02-21T14:08:51;2.83;;;1.85;;
34403;SDS011;23116;47.660;9.126;2024-02-21T14:11:19;2.45;;;1.98;;
34403;SDS011;23116;47.660;9.126;2024-02-21T14:13:46;1.60;;;1.50;;
34403;SDS011;23116;47.660;9.126;2024-02-21T14:16:13;2.35;;;1.80;;
34403;SDS011;23116;47.660;9.126;2024-02-21T14:18:41;2.45;;;1.92;;
34403;SDS011;23116;47.660;9.126;2024-02-21T14:21:08;2.50;;;1.75;;
34403;SDS011;23116;47.660;9.126;2024-02-21T14:23:39;2.65;;;1.70;;
34403;SDS011;23116;47.660;9.126;2024-02-21T14:26:06;2.10;;;1.90;;
34403;SDS011;23116;47.660;9.126;2024-02-21T14:28:33;1.70;;;1.52;;
34403;SDS011;23116;47.660;9.126;2024-02-21T14:31:01;1.60;;;1.50;;
34403;SDS011;23116;47.660;9.126;2024-02-21T14:33:30;3.95;;;1.88;;
34403;SDS011;23116;47.660;9.126;2024-02-21T14:35:58;2.00;;;1.90;;
34403;SDS011;23116;47.660;9.126;2024-02-21T14:38:25;2.30;;;2.10;;
34403;SDS011;23116;47.660;9.126;2024-02-21T14:40:52;3.13;;;2.10;;
34403;SDS011;23116;47.660;9.126;2024-02-21T14:43:20;3.03;;;2.13;;
34403;SDS011;23116;47.660;9.126;2024-02-21T14:45:47;2.75;;;2.22;;
34403;SDS011;23116;47.660;9.126;2024-02-21T14:48:14;2.80;;;2.15;;
34403;SDS011;23116;47.660;9.126;2024-02-21T14:50:42;2.35;;;2.00;;
34403;SDS011;23116;47.660;9.126;2024-02-21T14:53:09;2.50;;;2.30;;